Time;durP1;ratioP1;P1;durP2;ratioP2;P2;SDS_P1;SDS_P2;PMS_P1;PMS_P2;Temp;Humidity;BMP_temperature;BMP_pressure;BME280_temperature;BME280_humidity;BME280_pressure;Samples;Min_cycle;Max_cycle;Signal;HPM_P1;HPM_P2
2021/11/26 00:01:24;;;;;;;2.03;0.50;;;;;;;;;;4913628;29;20508;-66
2021/11/26 00:03:55;;;;;;;3.00;0.70;;;;;;;;;;4913388;29;20067;-64
2021/11/26 00:06:26;;;;;;;3.45;0.60;;;;;;;;;;4897523;29;20048;-65
2021/11/26 00:08:57;;;;;;;3.72;0.70;;;;;;;;;;4913692;29;20056;-65
2021/11/26 00:11:28;;;;;;;3.10;0.70;;;;;;;;;;4942624;29;20052;-66
2021/11/26 00:14:23;;;;;;;2.38;0.60;;;;;;;;;;4959819;28;20066;-65
2021/11/26 00:16:56;;;;;;;1.52;0.60;;;;;;;;;;5003580;28;20160;-66
2021/11/26 00:19:28;;;;;;;3.08;0.75;;;;;;;;;;4989866;28;20161;-67
2021/11/26 00:21:59;;;;;;;1.63;0.90;;;;;;;;;;5006270;28;20070;-66
2021/11/26 00:24:29;;;;;;;4.72;0.82;;;;;;;;;;4989385;28;20065;-70
2021/11/26 00:27:00;;;;;;;1.70;0.60;;;;;;;;;;4989668;28;20057;-65
2021/11/26 00:29:30;;;;;;;2.05;0.70;;;;;;;;;;4989611;28;20066;-66
2021/11/26 00:32:02;;;;;;;2.15;0.60;;;;;;;;;;4962134;28;20055;-66
2021/11/26 00:34:32;;;;;;;3.20;0.60;;;;;;;;;;4935117;28;20051;-66
2021/11/26 00:37:03;;;;;;;3.10;0.70;;;;;;;;;;4956510;28;20066;-68
2021/11/26 00:39:36;;;;;;;1.70;0.63;;;;;;;;;;4935093;29;20059;-66
2021/11/26 00:42:06;;;;;;;2.42;0.50;;;;;;;;;;4919278;29;20420;-67
2021/11/26 00:44:37;;;;;;;1.80;0.50;;;;;;;;;;4969956;28;20049;-67
2021/11/26 00:47:07;;;;;;;1.40;0.60;;;;;;;;;;4931130;29;20059;-66
2021/11/26 00:49:39;;;;;;;1.55;0.55;;;;;;;;;;4931606;29;20063;-67
2021/11/26 00:52:09;;;;;;;2.33;0.63;;;;;;;;;;4931857;29;20051;-67
2021/11/26 00:54:40;;;;;;;2.47;0.90;;;;;;;;;;4931512;29;20066;-67
2021/11/26 00:57:11;;;;;;;3.33;0.93;;;;;;;;;;4941983;28;20526;-66
2021/11/26 00:59:43;;;;;;;4.85;1.02;;;;;;;;;;4951153;28;20562;-67
2021/11/26 01:02:14;;;;;;;2.10;0.75;;;;;;;;;;4950912;28;20062;-66
2021/11/26 01:04:45;;;;;;;4.68;0.70;;;;;;;;;;4950546;28;20059;-67
2021/11/26 01:07:16;;;;;;;3.28;0.73;;;;;;;;;;4950287;28;20059;-67
2021/11/26 01:09:46;;;;;;;3.15;0.73;;;;;;;;;;4950749;29;20557;-66
2021/11/26 01:12:18;;;;;;;3.42;0.70;;;;;;;;;;4950424;28;20397;-69
2021/11/26 01:14:49;;;;;;;2.05;1.02;;;;;;;;;;4954256;28;20179;-70
2021/11/26 01:17:19;;;;;;;2.17;0.75;;;;;;;;;;4954325;28;20062;-66
2021/11/26 01:19:50;;;;;;;3.05;0.70;;;;;;;;;;4969941;28;20074;-68
2021/11/26 01:22:21;;;;;;;3.20;0.70;;;;;;;;;;4970063;28;20055;-66
2021/11/26 01:24:51;;;;;;;3.30;0.57;;;;;;;;;;4979918;28;20042;-67
2021/11/26 01:27:21;;;;;;;2.90;0.85;;;;;;;;;;4973602;28;20558;-66
2021/11/26 01:29:52;;;;;;;3.38;0.70;;;;;;;;;;4988936;28;20061;-67
2021/11/26 01:32:22;;;;;;;1.50;0.50;;;;;;;;;;4989541;28;20054;-66
2021/11/26 01:34:53;;;;;;;7.15;1.00;;;;;;;;;;4969539;28;20055;-67
2021/11/26 01:37:24;;;;;;;1.90;0.60;;;;;;;;;;4948731;28;20066;-66
2021/11/26 01:39:55;;;;;;;5.07;0.65;;;;;;;;;;4931451;28;20060;-66
2021/11/26 01:42:26;;;;;;;1.60;0.60;;;;;;;;;;4931289;29;20063;-66
2021/11/26 01:44:56;;;;;;;7.20;1.00;;;;;;;;;;4960266;28;20051;-66
2021/11/26 01:47:27;;;;;;;5.95;0.93;;;;;;;;;;4969452;28;20455;-67
2021/11/26 01:49:57;;;;;;;3.28;0.90;;;;;;;;;;4940400;28;20055;-66
2021/11/26 01:52:28;;;;;;;5.13;0.95;;;;;;;;;;4861966;29;20060;-67
2021/11/26 01:54:59;;;;;;;4.13;0.70;;;;;;;;;;4893274;29;20060;-67
2021/11/26 01:57:29;;;;;;;3.22;0.75;;;;;;;;;;4874364;29;20104;-67
2021/11/26 02:00:00;;;;;;;4.45;1.60;;;;;;;;;;4874569;29;20419;-67
2021/11/26 02:02:33;;;;;;;7.15;2.72;;;;;;;;;;4875014;29;20072;-66
2021/11/26 02:05:05;;;;;;;9.20;3.85;;;;;;;;;;4855584;29;20072;-67
2021/11/26 02:07:36;;;;;;;12.18;4.28;;;;;;;;;;4878375;29;20793;-66
2021/11/26 02:10:06;;;;;;;13.13;5.18;;;;;;;;;;4877783;29;20060;-69
2021/11/26 02:12:37;;;;;;;8.35;3.72;;;;;;;;;;4877778;29;20057;-67
2021/11/26 02:15:09;;;;;;;8.18;3.42;;;;;;;;;;4837305;29;20137;-66
2021/11/26 02:17:39;;;;;;;6.85;3.15;;;;;;;;;;4804593;29;20058;-67
2021/11/26 02:20:22;;;;;;;7.53;2.67;;;;;;;;;;4822335;29;20463;-68
2021/11/26 02:22:54;;;;;;;9.35;2.70;;;;;;;;;;4837072;29;20055;-70
2021/11/26 02:25:27;;;;;;;4.47;1.98;;;;;;;;;;4822367;29;20554;-66
2021/11/26 02:28:00;;;;;;;7.22;1.92;;;;;;;;;;4858841;29;20053;-66
2021/11/26 02:30:31;;;;;;;6.57;2.25;;;;;;;;;;4859326;29;20074;-66
2021/11/26 02:33:05;;;;;;;8.40;2.58;;;;;;;;;;4877532;29;20068;-67
2021/11/26 02:35:37;;;;;;;8.35;1.98;;;;;;;;;;4874365;29;20082;-67
2021/11/26 02:38:11;;;;;;;8.00;2.38;;;;;;;;;;4896381;29;20075;-67
2021/11/26 02:40:44;;;;;;;10.05;2.20;;;;;;;;;;4896107;29;20068;-68
2021/11/26 02:43:15;;;;;;;6.10;2.63;;;;;;;;;;4923021;29;20067;-68
2021/11/26 02:45:47;;;;;;;7.93;2.25;;;;;;;;;;4933918;29;20056;-67
2021/11/26 02:48:18;;;;;;;6.88;2.70;;;;;;;;;;4920179;29;20377;-68
2021/11/26 02:50:49;;;;;;;7.75;2.45;;;;;;;;;;4933759;29;20062;-68
2021/11/26 02:53:20;;;;;;;8.10;2.95;;;;;;;;;;4928278;29;20055;-67
2021/11/26 02:55:52;;;;;;;9.35;2.58;;;;;;;;;;4934048;29;20063;-67
2021/11/26 02:58:24;;;;;;;8.98;2.70;;;;;;;;;;4947742;29;20059;-68
2021/11/26 03:00:56;;;;;;;6.22;2.53;;;;;;;;;;4940323;28;20063;-66
2021/11/26 03:03:28;;;;;;;13.65;2.60;;;;;;;;;;4914305;29;20535;-68
2021/11/26 03:06:03;;;;;;;5.28;1.88;;;;;;;;;;4926770;29;20104;-67
2021/11/26 03:08:35;;;;;;;7.07;1.98;;;;;;;;;;4933635;29;20060;-67
2021/11/26 03:11:08;;;;;;;7.88;1.90;;;;;;;;;;4901450;29;20497;-67
2021/11/26 03:13:39;;;;;;;5.65;1.73;;;;;;;;;;4895690;29;20057;-67
2021/11/26 03:16:10;;;;;;;4.95;1.80;;;;;;;;;;4895328;29;20059;-66
2021/11/26 03:18:41;;;;;;;4.70;1.80;;;;;;;;;;4879732;29;20529;-69
2021/11/26 03:21:11;;;;;;;3.90;1.75;;;;;;;;;;4857975;29;20049;-67
2021/11/26 03:23:41;;;;;;;6.60;1.80;;;;;;;;;;4827260;29;20084;-70
2021/11/26 03:26:12;;;;;;;8.45;1.88;;;;;;;;;;4846954;29;20487;-66
2021/11/26 03:28:43;;;;;;;9.35;2.08;;;;;;;;;;4839633;29;20065;-68
2021/11/26 03:31:14;;;;;;;4.47;1.70;;;;;;;;;;4839672;29;20066;-67
2021/11/26 03:33:44;;;;;;;4.30;1.75;;;;;;;;;;4839880;29;20062;-67
2021/11/26 03:36:15;;;;;;;6.30;2.00;;;;;;;;;;4824665;29;20061;-68
2021/11/26 03:38:46;;;;;;;6.65;1.83;;;;;;;;;;4839736;29;20066;-66
2021/11/26 03:41:17;;;;;;;9.63;1.75;;;;;;;;;;4889289;29;20063;-67
2021/11/26 03:43:47;;;;;;;7.88;1.70;;;;;;;;;;4914167;29;20064;-69
2021/11/26 03:46:19;;;;;;;6.32;1.50;;;;;;;;;;4913905;29;20068;-69
2021/11/26 03:48:50;;;;;;;4.97;1.73;;;;;;;;;;4914687;29;20436;-66
2021/11/26 03:51:21;;;;;;;3.70;1.27;;;;;;;;;;4932789;29;20493;-67
2021/11/26 03:53:52;;;;;;;5.63;1.52;;;;;;;;;;4914879;28;20194;-68
2021/11/26 03:56:22;;;;;;;9.20;1.83;;;;;;;;;;4990909;28;20054;-66
2021/11/26 03:58:53;;;;;;;6.97;1.38;;;;;;;;;;4984974;28;20208;-68
2021/11/26 04:01:24;;;;;;;5.97;1.20;;;;;;;;;;4945370;28;20051;-66
2021/11/26 04:03:55;;;;;;;2.47;1.25;;;;;;;;;;4942343;29;20055;-67
2021/11/26 04:06:26;;;;;;;8.95;1.63;;;;;;;;;;4986726;28;20054;-67
2021/11/26 04:08:58;;;;;;;9.45;1.20;;;;;;;;;;4971050;28;20055;-67
2021/11/26 04:11:33;;;;;;;3.38;1.13;;;;;;;;;;4951648;28;20055;-68
2021/11/26 04:14:04;;;;;;;8.27;1.58;;;;;;;;;;4936021;29;20051;-67
2021/11/26 04:16:36;;;;;;;7.07;2.03;;;;;;;;;;4970553;28;20051;-67
2021/11/26 04:19:07;;;;;;;7.85;2.55;;;;;;;;;;4959570;28;20058;-68
2021/11/26 04:21:38;;;;;;;9.07;2.20;;;;;;;;;;4951196;28;20082;-70
2021/11/26 04:24:09;;;;;;;12.38;2.58;;;;;;;;;;4951474;29;20416;-68
2021/11/26 04:26:39;;;;;;;11.15;3.17;;;;;;;;;;4957568;28;20124;-67
2021/11/26 04:29:10;;;;;;;13.55;2.10;;;;;;;;;;4973836;28;20061;-69
2021/11/26 04:31:41;;;;;;;3.88;1.67;;;;;;;;;;4990141;28;20065;-67
2021/11/26 04:34:12;;;;;;;8.25;2.00;;;;;;;;;;4951183;28;20055;-67
2021/11/26 04:36:42;;;;;;;6.75;2.10;;;;;;;;;;4947497;29;20420;-67
2021/11/26 04:39:13;;;;;;;8.43;2.72;;;;;;;;;;4891972;29;20056;-69
2021/11/26 04:41:44;;;;;;;9.77;3.00;;;;;;;;;;4919580;29;20071;-68
2021/11/26 04:44:14;;;;;;;9.23;3.33;;;;;;;;;;4923594;29;20067;-68
2021/11/26 04:46:44;;;;;;;5.85;3.05;;;;;;;;;;4890707;29;20059;-68
2021/11/26 04:49:15;;;;;;;10.98;3.28;;;;;;;;;;4885646;29;20063;-68
2021/11/26 04:51:46;;;;;;;11.57;2.65;;;;;;;;;;4894094;29;20064;-67
2021/11/26 04:54:16;;;;;;;7.05;2.60;;;;;;;;;;4894079;29;20052;-66
2021/11/26 04:56:47;;;;;;;8.88;2.35;;;;;;;;;;4875194;29;20401;-68
2021/11/26 04:59:17;;;;;;;7.93;2.50;;;;;;;;;;4874902;29;20068;-67
2021/11/26 05:01:49;;;;;;;9.20;2.53;;;;;;;;;;4874993;29;20777;-67
2021/11/26 05:04:19;;;;;;;8.30;2.78;;;;;;;;;;4893158;29;20044;-67
2021/11/26 05:06:49;;;;;;;9.82;2.47;;;;;;;;;;4868687;29;20063;-67
2021/11/26 05:09:20;;;;;;;15.93;3.15;;;;;;;;;;4912156;29;20060;-67
2021/11/26 05:11:53;;;;;;;9.75;3.03;;;;;;;;;;4884061;29;20056;-67
2021/11/26 05:14:25;;;;;;;8.50;3.03;;;;;;;;;;4880329;29;20080;-68
2021/11/26 05:16:55;;;;;;;7.30;2.95;;;;;;;;;;4846844;29;20086;-67
2021/11/26 05:19:26;;;;;;;7.90;2.67;;;;;;;;;;4887688;29;20100;-69
2021/11/26 05:21:56;;;;;;;14.40;3.40;;;;;;;;;;4912584;29;20063;-67
2021/11/26 05:24:27;;;;;;;7.22;3.08;;;;;;;;;;4912389;29;20059;-67
2021/11/26 05:26:58;;;;;;;10.10;3.17;;;;;;;;;;4912771;29;20525;-69
2021/11/26 05:29:28;;;;;;;8.88;3.30;;;;;;;;;;4912491;29;20063;-67
2021/11/26 05:31:58;;;;;;;8.82;3.55;;;;;;;;;;4912651;29;20456;-67
2021/11/26 05:34:30;;;;;;;7.95;2.97;;;;;;;;;;4912557;29;20052;-67
2021/11/26 05:37:00;;;;;;;7.90;3.13;;;;;;;;;;4899585;29;20059;-68
2021/11/26 05:39:31;;;;;;;8.82;3.42;;;;;;;;;;4941194;29;20060;-67
2021/11/26 05:42:01;;;;;;;9.70;3.25;;;;;;;;;;4953988;28;20069;-68
2021/11/26 05:44:32;;;;;;;9.20;3.17;;;;;;;;;;4954383;29;20043;-68
2021/11/26 05:47:03;;;;;;;12.25;3.10;;;;;;;;;;4954407;28;20059;-67
2021/11/26 05:49:33;;;;;;;10.32;3.10;;;;;;;;;;4990580;28;20054;-68
2021/11/26 05:52:04;;;;;;;8.25;3.28;;;;;;;;;;5002957;28;20050;-67
2021/11/26 05:54:37;;;;;;;10.18;3.20;;;;;;;;;;5022317;28;20053;-68
2021/11/26 05:57:07;;;;;;;;;;;;;;;;;;5052474;28;20053;-67
2021/11/26 05:59:38;;;;;;;10.73;3.40;;;;;;;;;;5052220;28;19920;-68
2021/11/26 06:02:08;;;;;;;8.77;3.42;;;;;;;;;;5051795;28;20057;-68
2021/11/26 06:04:39;;;;;;;10.18;3.75;;;;;;;;;;5052078;28;20061;-67
2021/11/26 06:07:10;;;;;;;10.00;3.42;;;;;;;;;;5011976;28;20053;-68
2021/11/26 06:09:41;;;;;;;10.25;4.20;;;;;;;;;;4972862;28;20057;-66
2021/11/26 06:12:12;;;;;;;11.77;4.18;;;;;;;;;;4934544;29;20603;-68
2021/11/26 06:14:44;;;;;;;14.40;3.88;;;;;;;;;;4925063;29;20562;-68
2021/11/26 06:17:15;;;;;;;10.77;3.70;;;;;;;;;;4915131;29;20056;-67
2021/11/26 06:19:45;;;;;;;12.07;3.60;;;;;;;;;;4899722;29;20059;-67
2021/11/26 06:22:16;;;;;;;14.43;3.80;;;;;;;;;;4915145;29;20063;-67
2021/11/26 06:24:46;;;;;;;9.00;3.53;;;;;;;;;;4899917;29;20105;-67
2021/11/26 06:27:17;;;;;;;8.02;3.22;;;;;;;;;;4896241;29;20509;-67
2021/11/26 06:29:47;;;;;;;14.07;3.80;;;;;;;;;;4877444;29;20049;-68
2021/11/26 06:32:18;;;;;;;9.13;3.47;;;;;;;;;;4877752;29;20214;-67
2021/11/26 06:34:49;;;;;;;10.05;3.47;;;;;;;;;;4873208;29;20058;-67
2021/11/26 06:37:19;;;;;;;12.32;3.65;;;;;;;;;;4877462;29;20069;-68
2021/11/26 06:39:50;;;;;;;9.90;3.67;;;;;;;;;;4902057;29;20059;-67
2021/11/26 06:42:20;;;;;;;8.57;3.47;;;;;;;;;;4895853;29;20052;-68
2021/11/26 06:44:52;;;;;;;11.52;3.28;;;;;;;;;;4892758;29;20507;-67
2021/11/26 06:47:23;;;;;;;6.18;2.83;;;;;;;;;;4943480;28;20404;-67
2021/11/26 06:49:54;;;;;;;9.45;3.65;;;;;;;;;;4962939;28;20059;-67
2021/11/26 06:52:24;;;;;;;10.93;3.30;;;;;;;;;;4952043;28;20059;-67
2021/11/26 06:54:55;;;;;;;7.75;3.22;;;;;;;;;;4962314;28;20439;-67
2021/11/26 06:57:25;;;;;;;8.50;3.03;;;;;;;;;;4972345;28;20488;-67
2021/11/26 06:59:56;;;;;;;7.97;2.42;;;;;;;;;;4933610;28;20054;-67
2021/11/26 07:02:26;;;;;;;7.88;2.30;;;;;;;;;;4991720;28;20058;-68
2021/11/26 07:04:56;;;;;;;12.18;2.63;;;;;;;;;;4966188;28;20070;-67
2021/11/26 07:07:27;;;;;;;7.93;2.30;;;;;;;;;;4971788;28;20058;-67
2021/11/26 07:09:59;;;;;;;9.25;2.10;;;;;;;;;;4991419;28;20050;-67
2021/11/26 07:12:30;;;;;;;5.45;2.20;;;;;;;;;;4956631;28;20062;-69
2021/11/26 07:15:00;;;;;;;4.50;2.28;;;;;;;;;;4943432;29;20432;-67
2021/11/26 07:17:32;;;;;;;5.13;2.00;;;;;;;;;;4943119;29;20063;-67
2021/11/26 07:20:05;;;;;;;9.90;2.17;;;;;;;;;;4933800;29;20420;-67
2021/11/26 07:22:35;;;;;;;6.78;2.15;;;;;;;;;;4963525;28;20134;-67
2021/11/26 07:25:06;;;;;;;6.22;2.05;;;;;;;;;;4991518;28;20502;-68
2021/11/26 07:27:38;;;;;;;5.30;2.10;;;;;;;;;;4971439;28;20050;-67
2021/11/26 07:30:10;;;;;;;6.75;1.90;;;;;;;;;;4981990;28;20057;-67
2021/11/26 07:32:41;;;;;;;4.80;1.80;;;;;;;;;;4971471;28;20047;-67
2021/11/26 07:35:13;;;;;;;6.60;1.95;;;;;;;;;;4951994;29;20051;-67
2021/11/26 07:37:44;;;;;;;7.75;2.08;;;;;;;;;;4898613;29;20196;-68
2021/11/26 07:40:17;;;;;;;5.78;1.60;;;;;;;;;;4914014;29;20484;-68
2021/11/26 07:42:48;;;;;;;6.85;1.80;;;;;;;;;;4914261;29;20056;-67
2021/11/26 07:45:18;;;;;;;10.52;2.55;;;;;;;;;;4914027;29;20472;-71
2021/11/26 07:47:50;;;;;;;5.82;1.92;;;;;;;;;;4883789;29;20056;-69
2021/11/26 07:50:21;;;;;;;6.95;1.77;;;;;;;;;;4894709;29;20052;-68
2021/11/26 07:52:51;;;;;;;7.13;1.98;;;;;;;;;;4898791;29;20518;-67
2021/11/26 07:55:23;;;;;;;7.68;2.20;;;;;;;;;;4892044;29;20546;-68
2021/11/26 07:57:54;;;;;;;6.22;2.40;;;;;;;;;;4913614;29;20056;-68
2021/11/26 08:00:24;;;;;;;9.35;2.40;;;;;;;;;;4922137;29;20052;-67
2021/11/26 08:02:57;;;;;;;8.00;2.85;;;;;;;;;;4913022;29;20564;-70
2021/11/26 08:05:29;;;;;;;7.28;3.20;;;;;;;;;;4913646;29;20076;-67
2021/11/26 08:08:01;;;;;;;10.52;4.03;;;;;;;;;;4897141;29;20059;-69
2021/11/26 08:10:32;;;;;;;10.88;4.20;;;;;;;;;;4921147;29;20052;-67
2021/11/26 08:13:02;;;;;;;11.50;4.18;;;;;;;;;;4925108;29;20055;-67
2021/11/26 08:15:35;;;;;;;12.48;5.03;;;;;;;;;;4921706;29;20056;-68
2021/11/26 08:18:07;;;;;;;9.30;4.57;;;;;;;;;;4931528;29;20052;-70
2021/11/26 08:20:38;;;;;;;;;;;;;;;;;;4948491;28;20508;-68
2021/11/26 08:23:08;;;;;;;10.13;4.47;;;;;;;;;;4951281;28;19929;-68
2021/11/26 08:25:39;;;;;;;14.02;5.25;;;;;;;;;;4932125;29;20051;-67
2021/11/26 08:28:09;;;;;;;11.48;4.93;;;;;;;;;;4921352;29;20456;-69
2021/11/26 08:30:40;;;;;;;13.48;5.05;;;;;;;;;;4907906;29;20502;-68
2021/11/26 08:33:11;;;;;;;13.73;4.25;;;;;;;;;;4875836;29;20064;-66
2021/11/26 08:35:41;;;;;;;10.05;4.68;;;;;;;;;;4899269;29;20057;-68
2021/11/26 08:38:12;;;;;;;13.82;4.63;;;;;;;;;;4890709;29;20442;-68
2021/11/26 08:40:43;;;;;;;14.38;4.95;;;;;;;;;;4911318;29;20059;-68
2021/11/26 08:43:14;;;;;;;10.02;4.35;;;;;;;;;;4928597;29;20064;-67
2021/11/26 08:45:44;;;;;;;11.80;3.85;;;;;;;;;;4950875;28;20415;-67
2021/11/26 08:48:15;;;;;;;9.25;3.55;;;;;;;;;;4960676;28;20058;-70
2021/11/26 08:50:49;;;;;;;7.45;3.25;;;;;;;;;;4986312;28;20054;-67
2021/11/26 08:53:21;;;;;;;18.65;3.80;;;;;;;;;;4969979;28;20066;-68
2021/11/26 08:55:55;;;;;;;8.65;3.72;;;;;;;;;;4979039;28;20115;-67
2021/11/26 08:58:25;;;;;;;6.75;3.60;;;;;;;;;;4970125;28;20059;-67
2021/11/26 09:00:56;;;;;;;11.82;3.65;;;;;;;;;;4970422;28;20430;-68
2021/11/26 09:03:27;;;;;;;9.60;3.25;;;;;;;;;;4969597;28;20055;-68
2021/11/26 09:05:58;;;;;;;5.18;2.72;;;;;;;;;;4957813;28;20551;-67
2021/11/26 09:08:29;;;;;;;8.60;2.50;;;;;;;;;;4939582;29;20047;-67
2021/11/26 09:11:00;;;;;;;7.18;2.35;;;;;;;;;;4931669;29;20056;-67
2021/11/26 09:13:30;;;;;;;7.30;2.33;;;;;;;;;;4931361;29;20055;-68
2021/11/26 09:16:01;;;;;;;8.60;2.30;;;;;;;;;;4931376;29;20401;-67
2021/11/26 09:18:32;;;;;;;10.48;2.17;;;;;;;;;;4927945;29;20402;-69
2021/11/26 09:21:04;;;;;;;6.68;2.10;;;;;;;;;;4928154;29;20064;-67
2021/11/26 09:23:35;;;;;;;4.95;1.98;;;;;;;;;;4945184;28;20062;-67
2021/11/26 09:26:06;;;;;;;7.30;1.88;;;;;;;;;;4969780;28;20062;-68
2021/11/26 09:28:37;;;;;;;5.47;1.90;;;;;;;;;;4989053;28;20542;-67
2021/11/26 09:31:09;;;;;;;2.67;1.58;;;;;;;;;;4989452;28;20077;-67
2021/11/26 09:33:39;;;;;;;3.67;1.27;;;;;;;;;;4968041;28;20055;-67
2021/11/26 09:36:12;;;;;;;5.97;1.00;;;;;;;;;;4950595;29;20055;-68
2021/11/26 09:38:43;;;;;;;3.63;1.30;;;;;;;;;;4949937;29;20059;-67
2021/11/26 09:41:15;;;;;;;3.72;1.08;;;;;;;;;;4960919;28;20160;-67
2021/11/26 09:44:02;;;;;;;4.07;1.60;;;;;;;;;;4957188;28;20058;-67
2021/11/26 09:46:37;;;;;;;4.68;1.35;;;;;;;;;;4962920;28;20078;-67
2021/11/26 09:49:08;;;;;;;4.05;1.25;;;;;;;;;;5008495;28;20050;-68
2021/11/26 09:51:39;;;;;;;4.28;1.10;;;;;;;;;;4988466;28;20054;-67
2021/11/26 09:54:10;;;;;;;2.42;0.82;;;;;;;;;;4969337;28;20043;-67
2021/11/26 09:56:41;;;;;;;4.22;1.20;;;;;;;;;;4937345;28;20189;-67
2021/11/26 09:59:12;;;;;;;3.67;1.02;;;;;;;;;;4969891;28;20085;-68
2021/11/26 10:01:44;;;;;;;3.47;1.10;;;;;;;;;;4937581;28;20059;-67
2021/11/26 10:04:20;;;;;;;2.80;0.90;;;;;;;;;;4969440;28;20055;-67
2021/11/26 10:06:50;;;;;;;8.38;1.33;;;;;;;;;;4983341;28;20073;-67
2021/11/26 10:09:23;;;;;;;5.80;1.42;;;;;;;;;;4973146;28;20418;-70
2021/11/26 10:11:57;;;;;;;5.43;1.20;;;;;;;;;;4950271;29;20512;-69
2021/11/26 10:14:33;;;;;;;5.63;1.33;;;;;;;;;;4935037;29;20573;-68
2021/11/26 10:17:14;;;;;;;2.55;1.02;;;;;;;;;;4868479;29;20521;-69
2021/11/26 10:19:53;;;;;;;3.22;1.20;;;;;;;;;;4893363;29;20072;-69
2021/11/26 10:22:26;;;;;;;2.83;1.00;;;;;;;;;;4893066;29;20065;-69
2021/11/26 10:25:13;;;;;;;3.72;1.35;;;;;;;;;;4893285;29;20056;-69
2021/11/26 10:27:55;;;;;;;7.22;1.42;;;;;;;;;;4878078;29;20053;-69
2021/11/26 10:30:39;;;;;;;1.52;1.10;;;;;;;;;;4951212;29;20047;-68
2021/11/26 10:33:25;;;;;;;7.25;1.02;;;;;;;;;;4972869;28;20047;-68
2021/11/26 10:36:03;;;;;;;4.43;1.02;;;;;;;;;;4930392;29;20408;-68
2021/11/26 10:38:36;;;;;;;4.88;1.13;;;;;;;;;;4930694;29;20500;-68
2021/11/26 10:41:11;;;;;;;2.60;1.05;;;;;;;;;;4953024;29;20496;-68
2021/11/26 10:43:54;;;;;;;4.43;0.90;;;;;;;;;;4953381;29;20401;-71
2021/11/26 10:51:58;;;;;;;2.13;0.82;;;;;;;;;;4921093;29;20531;-70
2021/11/26 10:59:52;;;;;;;2.83;1.10;;;;;;;;;;4953024;29;20526;-68
2021/11/26 11:02:31;;;;;;;4.97;1.70;;;;;;;;;;4953164;29;20411;-68
2021/11/26 11:05:07;;;;;;;9.20;0.90;;;;;;;;;;4952865;29;20055;-70
2021/11/26 11:07:45;;;;;;;3.08;1.20;;;;;;;;;;4962282;28;20063;-67
2021/11/26 11:10:33;;;;;;;2.15;1.00;;;;;;;;;;4971771;28;20058;-67
2021/11/26 11:13:29;;;;;;;4.95;1.38;;;;;;;;;;4936248;29;20548;-68
2021/11/26 11:16:13;;;;;;;4.05;1.10;;;;;;;;;;4925633;29;20064;-68
2021/11/26 11:18:44;;;;;;;2.97;1.00;;;;;;;;;;4914313;29;20484;-68
2021/11/26 11:21:15;;;;;;;6.38;0.90;;;;;;;;;;4914471;29;20067;-70
2021/11/26 11:23:45;;;;;;;4.75;1.17;;;;;;;;;;4914619;29;20064;-68
2021/11/26 11:26:16;;;;;;;3.15;1.45;;;;;;;;;;4929842;29;20571;-68
2021/11/26 11:28:47;;;;;;;4.93;1.70;;;;;;;;;;4943111;28;20058;-69
2021/11/26 11:31:19;;;;;;;3.85;1.10;;;;;;;;;;4987477;28;20430;-66
2021/11/26 11:33:52;;;;;;;6.55;1.05;;;;;;;;;;4987605;28;20055;-67
2021/11/26 11:36:23;;;;;;;4.65;1.60;;;;;;;;;;4955423;28;20055;-67
2021/11/26 11:39:00;;;;;;;2.83;1.52;;;;;;;;;;4971466;28;20062;-67
2021/11/26 11:41:42;;;;;;;7.05;1.25;;;;;;;;;;4971582;28;20058;-68
2021/11/26 11:44:44;;;;;;;5.13;0.85;;;;;;;;;;4951948;29;20452;-66
2021/11/26 11:47:20;;;;;;;6.13;0.73;;;;;;;;;;4943970;28;20062;-66
2021/11/26 11:50:02;;;;;;;3.78;0.70;;;;;;;;;;4919860;29;20946;-66
2021/11/26 11:52:46;;;;;;;2.22;0.90;;;;;;;;;;4954775;28;20055;-64
2021/11/26 11:55:35;;;;;;;1.98;0.75;;;;;;;;;;4991087;28;20050;-65
2021/11/26 11:58:15;;;;;;;1.90;0.65;;;;;;;;;;4990755;28;20054;-64
2021/11/26 12:00:49;;;;;;;2.78;0.70;;;;;;;;;;4971373;28;20102;-65
2021/11/26 12:03:23;;;;;;;2.22;0.80;;;;;;;;;;4971073;28;20059;-65
2021/11/26 12:06:03;;;;;;;3.03;0.70;;;;;;;;;;4971474;28;20069;-64
2021/11/26 12:08:52;;;;;;;2.70;0.70;;;;;;;;;;4970738;28;20049;-63
2021/11/26 12:11:40;;;;;;;2.58;1.00;;;;;;;;;;4970952;28;20074;-69
2021/11/26 12:14:13;;;;;;;2.38;0.82;;;;;;;;;;4971223;28;20423;-63
2021/11/26 12:16:50;;;;;;;;;;;;;;;;;;4990543;28;20050;-65
2021/11/26 12:19:25;;;;;;;1.80;0.70;;;;;;;;;;4990380;28;19930;-67
2021/11/26 12:21:57;;;;;;;2.72;0.82;;;;;;;;;;4990260;28;20061;-66
2021/11/26 12:24:39;;;;;;;4.32;1.02;;;;;;;;;;4970419;28;20046;-65
2021/11/26 12:27:21;;;;;;;7.15;1.15;;;;;;;;;;4957841;28;20055;-72
2021/11/26 12:29:52;;;;;;;4.00;0.93;;;;;;;;;;4951182;29;20504;-66
2021/11/26 12:32:31;;;;;;;3.65;0.90;;;;;;;;;;4951443;29;20066;-64
2021/11/26 12:35:11;;;;;;;6.93;1.00;;;;;;;;;;4919490;29;20062;-67
2021/11/26 12:37:42;;;;;;;1.50;0.68;;;;;;;;;;4955226;28;20061;-68
2021/11/26 12:40:16;;;;;;;2.25;0.70;;;;;;;;;;4970367;28;20054;-66
2021/11/26 12:42:46;;;;;;;3.65;1.02;;;;;;;;;;4951117;29;20043;-65
2021/11/26 12:45:25;;;;;;;2.53;0.88;;;;;;;;;;4953935;28;20055;-65
2021/11/26 12:47:58;;;;;;;3.90;1.23;;;;;;;;;;4970099;28;20043;-64
2021/11/26 12:53:21;;;;;;;3.03;1.05;;;;;;;;;;4971174;28;20054;-66
2021/11/26 12:56:03;;;;;;;3.92;1.30;;;;;;;;;;4973868;28;20406;-66
2021/11/26 12:58:41;;;;;;;2.50;0.70;;;;;;;;;;4969802;28;20054;-64
2021/11/26 13:01:11;;;;;;;;;;;;;;;;;;4950513;28;20051;-68
2021/11/26 13:03:48;;;;;;;2.42;0.88;;;;;;;;;;4931683;29;19926;-66
2021/11/26 13:06:24;;;;;;;1.95;0.60;;;;;;;;;;4931655;29;20420;-66
2021/11/26 13:09:04;;;;;;;3.85;0.82;;;;;;;;;;4931532;29;20047;-65
2021/11/26 13:11:48;;;;;;;2.92;0.95;;;;;;;;;;4945934;29;20051;-64
2021/11/26 13:14:56;;;;;;;1.88;0.85;;;;;;;;;;4935605;29;20074;-65
2021/11/26 13:17:35;;;;;;;3.10;0.80;;;;;;;;;;4950380;29;20062;-63
2021/11/26 13:20:12;;;;;;;3.42;0.95;;;;;;;;;;4950915;29;20430;-65
2021/11/26 13:22:46;;;;;;;4.38;0.77;;;;;;;;;;4950619;29;20051;-64
2021/11/26 13:25:23;;;;;;;0.95;0.60;;;;;;;;;;4957930;28;20102;-67
2021/11/26 13:28:00;;;;;;;2.70;0.70;;;;;;;;;;4989013;28;20050;-65
2021/11/26 13:30:36;;;;;;;0.85;0.65;;;;;;;;;;4950288;28;20051;-65
2021/11/26 13:33:10;;;;;;;3.95;0.70;;;;;;;;;;4950729;28;20059;-67
2021/11/26 13:35:46;;;;;;;1.92;0.60;;;;;;;;;;4950536;28;20048;-66
2021/11/26 13:38:29;;;;;;;3.90;0.80;;;;;;;;;;4969322;28;20046;-64
2021/11/26 13:41:03;;;;;;;2.00;0.60;;;;;;;;;;4969700;28;20055;-65
2021/11/26 13:43:36;;;;;;;1.50;0.70;;;;;;;;;;4969906;28;20066;-63
2021/11/26 13:46:20;;;;;;;2.13;0.70;;;;;;;;;;4944069;28;20059;-68
2021/11/26 13:48:54;;;;;;;5.05;0.70;;;;;;;;;;4931182;29;20051;-66
2021/11/26 13:51:30;;;;;;;3.20;0.70;;;;;;;;;;4950185;28;20047;-65
2021/11/26 13:54:07;;;;;;;1.77;0.63;;;;;;;;;;4934458;28;20058;-65
2021/11/26 13:56:44;;;;;;;3.83;0.63;;;;;;;;;;4950446;28;20058;-64
2021/11/26 13:59:26;;;;;;;2.88;0.80;;;;;;;;;;4969247;28;20062;-64
2021/11/26 14:02:10;;;;;;;1.98;0.80;;;;;;;;;;4971052;28;20066;-66
2021/11/26 14:04:43;;;;;;;4.82;0.85;;;;;;;;;;4970295;28;20051;-65
2021/11/26 14:07:16;;;;;;;2.60;0.70;;;;;;;;;;4969260;28;20597;-66
2021/11/26 14:10:04;;;;;;;2.88;1.00;;;;;;;;;;4937313;29;20455;-66
2021/11/26 14:12:35;;;;;;;4.53;0.80;;;;;;;;;;4953850;29;20066;-65
2021/11/26 14:15:06;;;;;;;7.32;0.80;;;;;;;;;;4956726;28;20055;-66
2021/11/26 14:17:36;;;;;;;4.38;0.75;;;;;;;;;;4949266;28;20060;-65
2021/11/26 14:20:07;;;;;;;5.13;0.57;;;;;;;;;;4934801;29;20065;-67
2021/11/26 14:22:40;;;;;;;3.47;0.73;;;;;;;;;;4934634;29;20059;-65
2021/11/26 14:25:13;;;;;;;1.08;0.70;;;;;;;;;;4934860;29;20064;-65
2021/11/26 14:27:47;;;;;;;2.50;0.70;;;;;;;;;;4934519;29;20059;-71
2021/11/26 14:30:39;;;;;;;2.83;0.95;;;;;;;;;;4992462;28;20085;-67
2021/11/26 14:33:16;;;;;;;1.77;0.60;;;;;;;;;;4992373;28;20514;-65
2021/11/26 14:35:51;;;;;;;0.70;0.50;;;;;;;;;;5013427;28;20054;-64
2021/11/26 14:38:23;;;;;;;3.80;0.60;;;;;;;;;;5051684;28;20401;-66
2021/11/26 14:41:01;;;;;;;6.65;0.70;;;;;;;;;;5051230;28;20060;-65
2021/11/26 14:43:32;;;;;;;0.98;0.70;;;;;;;;;;5071710;28;20036;-64
2021/11/26 14:46:08;;;;;;;7.57;1.05;;;;;;;;;;5071572;28;20061;-66
2021/11/26 14:48:46;;;;;;;2.17;0.50;;;;;;;;;;5022035;28;20053;-66
2021/11/26 14:51:31;;;;;;;5.20;0.75;;;;;;;;;;5071446;28;20051;-64
2021/11/26 14:54:04;;;;;;;2.22;0.32;;;;;;;;;;5071018;28;20044;-66
2021/11/26 14:56:36;;;;;;;0.88;0.40;;;;;;;;;;4998441;28;20072;-64
2021/11/26 14:59:11;;;;;;;1.88;0.40;;;;;;;;;;5031401;28;20068;-64
2021/11/26 15:01:43;;;;;;;2.45;0.52;;;;;;;;;;4991571;28;20073;-64
2021/11/26 15:04:14;;;;;;;2.28;0.47;;;;;;;;;;4991947;28;20065;-64
2021/11/26 15:06:44;;;;;;;2.38;0.60;;;;;;;;;;4971835;28;20589;-65
2021/11/26 15:09:15;;;;;;;2.10;0.50;;;;;;;;;;4972006;28;20051;-64
2021/11/26 15:11:46;;;;;;;1.67;0.50;;;;;;;;;;4972253;28;20062;-64
2021/11/26 15:14:19;;;;;;;1.67;0.40;;;;;;;;;;4955770;28;20419;-65
2021/11/26 15:16:51;;;;;;;1.45;0.32;;;;;;;;;;4924287;28;20479;-63
2021/11/26 15:19:22;;;;;;;2.47;0.50;;;;;;;;;;4933395;29;20094;-65
2021/11/26 15:21:53;;;;;;;2.75;0.40;;;;;;;;;;4933561;29;20056;-68
2021/11/26 15:24:24;;;;;;;2.35;0.55;;;;;;;;;;4933688;29;20054;-63
2021/11/26 15:26:54;;;;;;;2.03;0.50;;;;;;;;;;4917888;29;20056;-65
2021/11/26 15:29:25;;;;;;;3.67;0.50;;;;;;;;;;4933605;29;20567;-65
2021/11/26 15:31:56;;;;;;;1.92;0.60;;;;;;;;;;4916424;29;20059;-66